createdAt,value
2022-12-18T00:01:32.755Z,81.92
2022-12-18T00:04:00.524Z,81.30
2022-12-18T00:06:28.665Z,80.82
2022-12-18T00:08:57.716Z,79.82
2022-12-18T00:11:26.822Z,79.30
2022-12-18T00:13:56.189Z,78.51
2022-12-18T00:16:25.544Z,81.07
2022-12-18T00:18:55.048Z,81.29
2022-12-18T00:21:21.879Z,81.22
2022-12-18T00:23:50.537Z,81.26
2022-12-18T00:26:23.309Z,81.16
2022-12-18T00:28:50.726Z,79.47
2022-12-18T00:31:19.408Z,80.99
2022-12-18T00:33:46.513Z,82.45
2022-12-18T00:36:19.172Z,81.73
2022-12-18T00:38:46.846Z,81.31
2022-12-18T00:41:35.487Z,80.38
2022-12-18T00:44:03.116Z,79.10
2022-12-18T00:46:29.658Z,78.47
2022-12-18T00:48:56.405Z,79.12
2022-12-18T00:51:23.058Z,80.76
2022-12-18T00:53:49.637Z,80.66
2022-12-18T00:56:16.165Z,79.65
2022-12-18T00:58:42.675Z,80.67
2022-12-18T01:01:09.854Z,80.09
2022-12-18T01:03:36.902Z,80.36
2022-12-18T01:06:12.666Z,81.52
2022-12-18T01:08:40.115Z,80.47
2022-12-18T01:11:20.471Z,80.73
2022-12-18T01:13:47.660Z,81.80
2022-12-18T01:16:16.780Z,83.34
2022-12-18T01:18:43.586Z,82.19
2022-12-18T01:21:12.683Z,82.13
2022-12-18T01:23:39.693Z,81.17
2022-12-18T01:26:17.258Z,80.86
2022-12-18T01:28:45.078Z,79.68
2022-12-18T01:31:19.527Z,80.89
2022-12-18T01:33:46.651Z,80.88
2022-12-18T01:36:28.681Z,80.42
2022-12-18T01:38:55.749Z,78.57
2022-12-18T01:41:25.114Z,80.59
2022-12-18T01:43:59.156Z,82.61
2022-12-18T01:46:26.885Z,82.45
2022-12-18T01:49:00.761Z,80.29
2022-12-18T01:51:30.229Z,80.18
2022-12-18T01:53:57.658Z,80.59
2022-12-18T01:56:24.455Z,80.65
2022-12-18T01:59:04.308Z,81.13
2022-12-18T02:01:32.247Z,81.58
2022-12-18T02:04:21.638Z,82.64
2022-12-18T02:07:00.847Z,80.90
2022-12-18T02:09:37.263Z,81.12
2022-12-18T02:12:17.261Z,80.14
2022-12-18T02:15:02.476Z,80.08
2022-12-18T02:17:43.777Z,81.26
2022-12-18T02:20:36.921Z,82.28
2022-12-18T02:23:31.458Z,80.74
2022-12-18T02:26:11.810Z,81.31
2022-12-18T02:28:46.339Z,82.60
2022-12-18T02:31:19.027Z,83.29
2022-12-18T02:33:46.893Z,83.14
2022-12-18T02:36:16.711Z,82.48
2022-12-18T02:38:46.572Z,83.67
2022-12-18T02:41:15.638Z,83.02
2022-12-18T02:43:47.944Z,83.55
2022-12-18T02:46:39.015Z,82.92
2022-12-18T02:49:23.039Z,83.22
2022-12-18T02:51:55.808Z,82.75
2022-12-18T02:54:35.549Z,83.42
2022-12-18T02:57:15.454Z,82.81
2022-12-18T02:59:59.946Z,83.92
2022-12-18T03:02:35.261Z,82.70
2022-12-18T03:05:21.434Z,83.19
2022-12-18T03:07:56.264Z,83.21
2022-12-18T03:10:30.347Z,83.38
2022-12-18T03:13:11.656Z,83.35
2022-12-18T03:15:43.791Z,83.84
2022-12-18T03:18:18.500Z,83.52
2022-12-18T03:20:47.698Z,83.16
2022-12-18T03:23:18.936Z,82.97
2022-12-18T03:25:47.454Z,83.07
2022-12-18T03:28:22.221Z,83.76
2022-12-18T03:30:53.850Z,83.17
2022-12-18T03:33:57.124Z,83.44
2022-12-18T03:36:24.771Z,83.49
2022-12-18T03:38:52.232Z,83.58
2022-12-18T03:41:39.400Z,83.83
2022-12-18T03:44:24.867Z,82.83
2022-12-18T03:46:57.497Z,81.91
2022-12-18T03:49:33.053Z,81.97
2022-12-18T03:52:52.544Z,83.34
2022-12-18T03:55:20.827Z,83.67
2022-12-18T03:57:49.416Z,82.35
2022-12-18T04:00:19.185Z,83.03
2022-12-18T04:02:56.575Z,82.48
2022-12-18T04:05:25.457Z,83.10
2022-12-18T04:07:53.517Z,83.06
2022-12-18T04:10:20.118Z,82.10
2022-12-18T04:12:46.969Z,81.41
2022-12-18T04:15:14.628Z,81.06
2022-12-18T04:17:49.692Z,80.39
2022-12-18T04:20:16.700Z,80.90
2022-12-18T04:22:43.373Z,81.97
2022-12-18T04:25:10.167Z,82.17
2022-12-18T04:27:36.695Z,82.63
2022-12-18T04:30:03.726Z,81.58
2022-12-18T04:32:30.399Z,82.53
2022-12-18T04:34:56.956Z,82.41
2022-12-18T04:37:23.467Z,81.95
2022-12-18T04:39:50.047Z,81.28
2022-12-18T04:42:16.785Z,81.25
2022-12-18T04:44:43.319Z,81.27
2022-12-18T04:47:10.065Z,81.10
2022-12-18T04:49:36.665Z,81.18
2022-12-18T04:52:03.362Z,82.10
2022-12-18T04:54:30.054Z,82.14
2022-12-18T04:56:56.665Z,81.91
2022-12-18T04:59:23.210Z,82.33
2022-12-18T05:01:50.362Z,83.48
2022-12-18T05:04:17.141Z,83.81
2022-12-18T05:06:44.610Z,83.45
2022-12-18T05:09:11.359Z,82.86
2022-12-18T05:11:38.020Z,82.92
2022-12-18T05:14:04.579Z,84.32
2022-12-18T05:16:31.228Z,83.32
2022-12-18T05:18:57.872Z,83.05
2022-12-18T05:21:24.419Z,82.48
2022-12-18T05:23:51.137Z,82.58
2022-12-18T05:26:19.224Z,82.05
2022-12-18T05:28:47.046Z,81.63
2022-12-18T05:31:14.269Z,82.89
2022-12-18T05:33:41.099Z,82.24
2022-12-18T05:36:09.711Z,83.16
2022-12-18T05:38:38.093Z,82.60
2022-12-18T05:41:05.544Z,82.05
2022-12-18T05:43:32.797Z,81.55
2022-12-18T05:46:03.839Z,81.18
2022-12-18T05:48:30.346Z,81.80
2022-12-18T05:50:57.384Z,82.61
2022-12-18T05:53:23.976Z,83.15
2022-12-18T05:55:50.628Z,84.26
2022-12-18T05:58:17.189Z,84.12
2022-12-18T06:00:47.544Z,83.63
2022-12-18T06:03:14.986Z,84.13
2022-12-18T06:05:44.768Z,84.45
2022-12-18T06:08:12.471Z,84.48
2022-12-18T06:10:39.184Z,83.29
2022-12-18T06:13:06.827Z,84.00
2022-12-18T06:15:33.899Z,83.34
2022-12-18T06:18:02.014Z,82.64
2022-12-18T06:20:33.639Z,81.89
2022-12-18T06:23:00.998Z,82.06
2022-12-18T06:25:27.588Z,82.30
2022-12-18T06:27:54.179Z,83.22
2022-12-18T06:30:21.227Z,84.46
2022-12-18T06:32:54.689Z,84.57
2022-12-18T06:35:23.600Z,83.19
2022-12-18T06:37:50.171Z,84.81
2022-12-18T06:40:17.356Z,84.99
2022-12-18T06:42:43.904Z,85.34
2022-12-18T06:45:10.883Z,84.51
2022-12-18T06:47:37.526Z,83.62
2022-12-18T06:50:04.364Z,83.16
2022-12-18T06:52:33.058Z,83.17
2022-12-18T06:54:59.550Z,82.92
2022-12-18T06:57:26.342Z,82.46
2022-12-18T06:59:52.941Z,82.13
2022-12-18T07:02:19.600Z,83.47
2022-12-18T07:04:46.269Z,83.63
2022-12-18T07:07:12.927Z,84.25
2022-12-18T07:09:39.417Z,84.15
2022-12-18T07:12:06.117Z,83.84
2022-12-18T07:14:32.654Z,83.42
2022-12-18T07:16:59.244Z,84.41
2022-12-18T07:19:26.880Z,83.47
2022-12-18T07:21:53.389Z,83.47
2022-12-18T07:24:19.984Z,83.40
2022-12-18T07:26:47.983Z,83.31
2022-12-18T07:29:14.971Z,83.78
2022-12-18T07:31:41.633Z,83.27
2022-12-18T07:34:12.651Z,82.56
2022-12-18T07:36:39.338Z,82.59
2022-12-18T07:39:05.945Z,81.85
2022-12-18T07:41:32.582Z,80.25
2022-12-18T07:43:59.201Z,82.33
2022-12-18T07:46:25.874Z,82.84
2022-12-18T07:48:52.633Z,82.31
2022-12-18T07:51:19.642Z,82.06
2022-12-18T07:53:46.240Z,82.26
2022-12-18T07:56:30.389Z,82.54
2022-12-18T07:58:58.638Z,81.35
2022-12-18T08:01:25.723Z,82.41
2022-12-18T08:03:52.738Z,81.12
2022-12-18T08:06:22.538Z,82.01
2022-12-18T08:08:55.611Z,81.50
2022-12-18T08:11:24.233Z,79.63
2022-12-18T08:13:51.133Z,80.32
2022-12-18T08:16:18.079Z,80.26
2022-12-18T08:18:44.845Z,80.02
2022-12-18T08:21:12.189Z,80.20
2022-12-18T08:23:42.617Z,79.56
2022-12-18T08:26:10.608Z,79.18
2022-12-18T08:28:37.153Z,77.74
2022-12-18T08:31:04.112Z,78.29
2022-12-18T08:33:31.256Z,78.61
2022-12-18T08:35:59.874Z,78.32
2022-12-18T08:38:26.497Z,75.64
2022-12-18T08:41:13.832Z,77.17
2022-12-18T08:43:59.530Z,78.09
2022-12-18T08:46:28.115Z,78.86
2022-12-18T08:48:56.886Z,78.38
2022-12-18T08:51:24.082Z,79.05
2022-12-18T08:53:50.624Z,78.30
2022-12-18T08:56:17.798Z,78.28
2022-12-18T08:58:44.909Z,78.39
2022-12-18T09:01:13.328Z,77.61
2022-12-18T09:03:41.155Z,75.42
2022-12-18T09:06:08.236Z,73.99
2022-12-18T09:08:34.892Z,76.32
2022-12-18T09:11:01.477Z,75.50
2022-12-18T09:13:28.284Z,75.23
2022-12-18T09:15:56.635Z,74.88
2022-12-18T09:18:24.506Z,71.96
2022-12-18T09:20:54.556Z,71.43
2022-12-18T09:23:21.992Z,69.89
2022-12-18T09:25:49.057Z,73.09
2022-12-18T09:28:18.832Z,74.82
2022-12-18T09:30:49.668Z,73.89
2022-12-18T09:33:17.544Z,72.55
2022-12-18T09:35:45.585Z,71.98
2022-12-18T09:38:17.704Z,70.68
2022-12-18T09:40:52.971Z,71.33
2022-12-18T09:43:25.578Z,71.70
2022-12-18T09:46:10.020Z,70.97
2022-12-18T09:48:41.791Z,72.29
2022-12-18T09:51:16.253Z,71.43
2022-12-18T09:53:48.437Z,70.88
2022-12-18T09:56:20.031Z,69.77
2022-12-18T09:58:54.199Z,71.15
2022-12-18T10:01:24.095Z,70.11
2022-12-18T10:03:52.613Z,67.85
2022-12-18T10:06:29.475Z,66.80
2022-12-18T10:09:14.678Z,67.48
2022-12-18T10:11:58.419Z,66.26
2022-12-18T10:14:43.468Z,65.65
2022-12-18T10:17:12.956Z,67.11
2022-12-18T10:20:05.941Z,67.94
2022-12-18T10:22:45.328Z,68.38
2022-12-18T10:25:21.397Z,68.00
2022-12-18T10:27:49.414Z,68.13
2022-12-18T10:30:22.599Z,72.56
2022-12-18T10:32:49.136Z,70.83
2022-12-18T10:35:27.853Z,69.69
2022-12-18T10:38:15.208Z,70.08
2022-12-18T10:40:56.083Z,68.38
2022-12-18T10:43:40.478Z,67.91
2022-12-18T10:46:10.131Z,67.29
2022-12-18T10:48:40.060Z,66.45
2022-12-18T10:51:12.161Z,67.35
2022-12-18T10:53:43.770Z,69.34
2022-12-18T10:56:10.703Z,68.98
2022-12-18T10:58:39.109Z,71.60
2022-12-18T11:01:23.022Z,70.79
2022-12-18T11:04:01.599Z,70.14
2022-12-18T11:06:29.603Z,71.05
2022-12-18T11:09:09.512Z,68.78
2022-12-18T11:11:39.965Z,68.68
2022-12-18T11:14:15.441Z,67.80
2022-12-18T11:17:23.815Z,67.36
2022-12-18T11:19:37.367Z,70.49
2022-12-18T11:22:24.153Z,68.15
2022-12-18T11:25:30.969Z,66.35
2022-12-18T11:27:52.109Z,67.64
2022-12-18T11:30:26.321Z,67.74
2022-12-18T11:33:16.442Z,67.23
2022-12-18T11:36:04.684Z,68.47
2022-12-18T11:38:36.191Z,68.12
2022-12-18T11:41:51.202Z,66.41
2022-12-18T11:44:27.983Z,68.85
2022-12-18T11:47:01.399Z,66.95
2022-12-18T11:49:35.568Z,67.11
2022-12-18T11:52:14.866Z,65.23
2022-12-18T11:54:41.433Z,66.14
2022-12-18T11:57:35.853Z,65.75
2022-12-18T12:00:14.210Z,68.25
2022-12-18T12:02:58.832Z,67.92
2022-12-18T12:05:46.093Z,69.36
2022-12-18T12:08:15.496Z,68.79
2022-12-18T12:11:13.625Z,70.97
2022-12-18T12:14:18.697Z,70.88
2022-12-18T12:16:58.106Z,71.19
2022-12-18T12:19:24.547Z,68.00
2022-12-18T12:22:29.694Z,70.38
2022-12-18T12:25:21.264Z,69.01
2022-12-18T12:27:56.740Z,70.66
2022-12-18T12:30:46.567Z,71.58
2022-12-18T12:33:57.861Z,70.06
2022-12-18T12:36:42.181Z,72.27
2022-12-18T12:39:15.545Z,68.17
2022-12-18T12:42:04.835Z,67.70
2022-12-18T12:44:54.266Z,68.66
2022-12-18T12:47:34.197Z,66.53
2022-12-18T12:50:07.954Z,65.15
2022-12-18T12:52:46.442Z,65.42
2022-12-18T12:55:23.729Z,64.49
2022-12-18T12:58:15.360Z,68.34
2022-12-18T13:00:51.789Z,67.43
2022-12-18T13:03:43.854Z,66.16
2022-12-18T13:06:28.822Z,69.42
2022-12-18T13:09:00.003Z,67.47
2022-12-18T13:12:00.279Z,66.67
2022-12-18T13:14:32.147Z,66.91
2022-12-18T13:17:18.431Z,69.02
2022-12-18T13:19:45.482Z,70.92
2022-12-18T13:22:24.877Z,68.45
2022-12-18T13:24:52.356Z,71.13
2022-12-18T13:27:55.136Z,70.67
2022-12-18T13:30:34.600Z,74.41
2022-12-18T13:33:20.895Z,74.14
2022-12-18T13:35:47.713Z,72.20
2022-12-18T13:38:32.842Z,74.03
2022-12-18T13:41:16.018Z,73.80
2022-12-18T13:43:47.153Z,73.08
2022-12-18T13:46:21.210Z,71.98
2022-12-18T13:48:57.019Z,73.04
2022-12-18T13:51:25.435Z,71.44
2022-12-18T13:54:12.929Z,71.52
2022-12-18T13:56:45.616Z,73.06
2022-12-18T13:59:15.832Z,73.65
2022-12-18T14:01:59.667Z,73.24
2022-12-18T14:04:31.785Z,74.78
2022-12-18T14:07:04.712Z,73.86
2022-12-18T14:09:35.827Z,74.38
2022-12-18T14:12:22.833Z,73.87
2022-12-18T14:14:55.047Z,74.37
2022-12-18T14:17:22.095Z,73.71
2022-12-18T14:19:51.267Z,72.17
2022-12-18T14:22:28.810Z,73.71
2022-12-18T14:25:24.906Z,75.55
2022-12-18T14:27:54.753Z,75.06
2022-12-18T14:30:29.576Z,74.39
2022-12-18T14:33:05.332Z,72.69
2022-12-18T14:35:33.945Z,72.78
2022-12-18T14:38:23.464Z,74.40
2022-12-18T14:40:58.080Z,73.39
2022-12-18T14:43:24.826Z,73.91
2022-12-18T14:45:52.609Z,76.20
2022-12-18T14:48:41.141Z,72.96
2022-12-18T14:51:15.558Z,76.38
2022-12-18T14:53:50.677Z,76.78
2022-12-18T14:56:23.663Z,77.62
2022-12-18T14:58:54.836Z,77.40
2022-12-18T15:01:48.921Z,76.43
2022-12-18T15:04:44.826Z,78.01
2022-12-18T15:07:23.681Z,78.42
2022-12-18T15:10:17.046Z,80.29
2022-12-18T15:13:07.221Z,78.90
2022-12-18T15:15:34.052Z,79.46
2022-12-18T15:18:13.355Z,80.63
2022-12-18T15:20:50.589Z,81.49
2022-12-18T15:23:28.778Z,82.76
2022-12-18T15:26:07.067Z,82.80
2022-12-18T15:28:46.584Z,83.82
2022-12-18T15:31:13.331Z,83.56
2022-12-18T15:33:45.103Z,84.84
2022-12-18T15:36:14.504Z,85.34
2022-12-18T15:38:41.776Z,85.94
2022-12-18T15:41:20.044Z,85.09
2022-12-18T15:43:51.274Z,85.77
2022-12-18T15:46:25.560Z,84.83
2022-12-18T15:48:59.734Z,85.10
2022-12-18T15:51:33.688Z,85.08
2022-12-18T15:54:04.647Z,85.54
2022-12-18T15:56:50.361Z,86.00
2022-12-18T15:59:19.861Z,86.22
2022-12-18T16:01:50.636Z,85.86
2022-12-18T16:04:21.453Z,85.83
2022-12-18T16:07:13.803Z,85.04
2022-12-18T16:09:35.339Z,85.48
2022-12-18T16:12:02.005Z,86.31
2022-12-18T16:14:32.457Z,86.20
2022-12-18T16:17:02.354Z,85.48
2022-12-18T16:19:29.993Z,84.88
2022-12-18T16:21:58.806Z,85.43
2022-12-18T16:24:29.241Z,84.18
2022-12-18T16:26:58.690Z,85.08
2022-12-18T16:29:28.539Z,84.93
2022-12-18T16:31:56.888Z,84.04
2022-12-18T16:34:29.597Z,84.17
2022-12-18T16:37:04.928Z,83.61
2022-12-18T16:39:36.190Z,83.95
2022-12-18T16:42:06.165Z,83.11
2022-12-18T16:44:34.104Z,83.70
2022-12-18T16:47:03.079Z,84.08
2022-12-18T16:49:30.462Z,83.78
2022-12-18T16:51:57.079Z,83.46
2022-12-18T16:54:23.940Z,83.54
2022-12-18T16:56:51.739Z,83.73
2022-12-18T16:59:19.062Z,82.15
2022-12-18T17:01:46.923Z,82.79
2022-12-18T17:04:14.255Z,82.92
2022-12-18T17:06:43.212Z,83.86
2022-12-18T17:09:14.324Z,84.85
2022-12-18T17:11:41.308Z,84.19
2022-12-18T17:14:19.175Z,84.86
2022-12-18T17:16:46.928Z,85.17
2022-12-18T17:19:17.263Z,85.35
2022-12-18T17:21:45.719Z,85.67
2022-12-18T17:24:12.317Z,86.11
2022-12-18T17:26:39.005Z,85.86
2022-12-18T17:29:05.928Z,85.54
2022-12-18T17:31:33.449Z,85.31
2022-12-18T17:34:03.889Z,85.79
2022-12-18T17:36:33.714Z,85.93
2022-12-18T17:39:01.852Z,86.12
2022-12-18T17:41:29.951Z,86.47
2022-12-18T17:43:58.760Z,86.80
2022-12-18T17:46:26.504Z,85.44
2022-12-18T17:48:55.959Z,85.03
2022-12-18T17:51:22.731Z,84.61
2022-12-18T17:53:49.758Z,85.26
2022-12-18T17:56:19.154Z,85.85
2022-12-18T17:58:46.196Z,85.73
2022-12-18T18:01:14.776Z,85.92
2022-12-18T18:03:43.793Z,84.58
2022-12-18T18:06:11.682Z,86.42
2022-12-18T18:08:38.209Z,86.30
2022-12-18T18:11:26.422Z,86.36
2022-12-18T18:14:02.535Z,84.82
2022-12-18T18:16:38.326Z,85.20
2022-12-18T18:19:08.190Z,86.27
2022-12-18T18:21:39.061Z,85.76
2022-12-18T18:24:06.223Z,86.68
2022-12-18T18:26:33.848Z,86.41
2022-12-18T18:29:02.519Z,85.63
2022-12-18T18:31:35.320Z,86.32
2022-12-18T18:34:08.205Z,86.18
2022-12-18T18:36:34.923Z,86.48
2022-12-18T18:39:02.230Z,86.87
2022-12-18T18:41:30.513Z,86.85
2022-12-18T18:43:58.513Z,86.09
2022-12-18T18:46:26.228Z,86.13
2022-12-18T18:48:53.167Z,86.18
2022-12-18T18:51:21.635Z,85.14
2022-12-18T18:53:50.530Z,86.00
2022-12-18T18:56:56.275Z,85.40
2022-12-18T18:59:06.101Z,85.28
2022-12-18T19:01:33.049Z,86.50
2022-12-18T19:04:00.746Z,85.38
2022-12-18T19:06:28.408Z,85.30
2022-12-18T19:08:56.899Z,85.17
2022-12-18T19:11:42.575Z,85.40
2022-12-18T19:14:12.111Z,84.79
2022-12-18T19:16:39.428Z,84.74
2022-12-18T19:19:06.937Z,84.11
2022-12-18T19:21:34.728Z,84.19
2022-12-18T19:24:02.670Z,84.52
2022-12-18T19:26:30.235Z,84.44
2022-12-18T19:29:08.165Z,83.92
2022-12-18T19:31:36.951Z,84.66
2022-12-18T19:34:06.679Z,85.05
2022-12-18T19:36:35.208Z,84.56
2022-12-18T19:39:02.748Z,84.29
2022-12-18T19:41:31.317Z,84.20
2022-12-18T19:43:58.665Z,84.27
2022-12-18T19:46:25.487Z,84.03
2022-12-18T19:48:52.265Z,83.41
2022-12-18T19:51:22.862Z,82.95
2022-12-18T19:53:54.981Z,84.63
2022-12-18T19:56:26.864Z,83.85
2022-12-18T19:58:54.426Z,83.69
2022-12-18T20:01:23.029Z,83.47
2022-12-18T20:03:52.308Z,83.48
2022-12-18T20:06:35.500Z,84.32
2022-12-18T20:09:06.712Z,84.93
2022-12-18T20:11:41.571Z,84.96
2022-12-18T20:14:08.667Z,84.27
2022-12-18T20:16:35.431Z,83.96
2022-12-18T20:19:02.437Z,85.19
2022-12-18T20:21:29.745Z,84.85
2022-12-18T20:23:56.446Z,84.97
2022-12-18T20:26:24.080Z,84.94
2022-12-18T20:28:50.958Z,84.75
2022-12-18T20:31:17.473Z,84.24
2022-12-18T20:33:47.520Z,85.22
2022-12-18T20:36:21.398Z,84.64
2022-12-18T20:38:55.715Z,85.05
2022-12-18T20:41:24.999Z,84.21
2022-12-18T20:43:51.862Z,83.81
2022-12-18T20:46:19.069Z,84.16
2022-12-18T20:48:48.194Z,84.23
2022-12-18T20:51:17.715Z,84.58
2022-12-18T20:53:45.619Z,84.12
2022-12-18T20:56:20.166Z,83.66
2022-12-18T20:58:53.964Z,85.46
2022-12-18T21:01:23.408Z,84.93
2022-12-18T21:03:51.233Z,84.48
2022-12-18T21:06:19.621Z,85.18
2022-12-18T21:08:46.426Z,85.64
2022-12-18T21:11:38.567Z,86.33
2022-12-18T21:14:15.941Z,85.18
2022-12-18T21:16:43.962Z,84.45
2022-12-18T21:19:16.976Z,84.12
2022-12-18T21:21:44.483Z,85.27
2022-12-18T21:24:11.694Z,85.31
2022-12-18T21:26:45.488Z,85.03
2022-12-18T21:29:19.347Z,84.71
2022-12-18T21:31:46.805Z,84.98
2022-12-18T21:34:26.373Z,85.44
2022-12-18T21:36:54.184Z,84.70
2022-12-18T21:39:22.504Z,84.77
2022-12-18T21:42:08.582Z,85.48
2022-12-18T21:44:38.091Z,85.26
2022-12-18T21:47:21.497Z,85.50
2022-12-18T21:49:53.166Z,85.85
2022-12-18T21:52:30.916Z,84.27
2022-12-18T21:55:03.293Z,84.33
2022-12-18T21:57:35.088Z,84.98
2022-12-18T22:00:02.222Z,85.44
2022-12-18T22:02:29.182Z,85.76
2022-12-18T22:04:55.900Z,85.21
2022-12-18T22:07:23.162Z,83.46
2022-12-18T22:09:51.100Z,84.11
2022-12-18T22:12:35.460Z,83.68
2022-12-18T22:15:04.471Z,82.81
2022-12-18T22:17:31.150Z,83.79
2022-12-18T22:19:57.838Z,81.98
2022-12-18T22:22:24.353Z,81.01
2022-12-18T22:24:50.906Z,80.94
2022-12-18T22:27:17.594Z,80.82
2022-12-18T22:30:02.681Z,81.27
2022-12-18T22:32:31.328Z,80.68
2022-12-18T22:35:07.187Z,82.71
2022-12-18T22:37:34.929Z,83.41
2022-12-18T22:40:03.325Z,83.37
2022-12-18T22:42:31.142Z,81.40
2022-12-18T22:44:57.686Z,80.04
2022-12-18T22:47:28.004Z,78.95
2022-12-18T22:49:55.831Z,78.81
2022-12-18T22:52:22.556Z,79.40
2022-12-18T22:54:51.462Z,81.27
2022-12-18T22:57:20.102Z,82.27
2022-12-18T22:59:46.875Z,82.69
2022-12-18T23:02:13.554Z,83.34
2022-12-18T23:04:40.288Z,83.07
2022-12-18T23:07:07.009Z,84.27
2022-12-18T23:09:34.011Z,84.31
2022-12-18T23:12:01.160Z,82.80
2022-12-18T23:14:28.841Z,84.16
2022-12-18T23:16:55.667Z,83.45
2022-12-18T23:19:23.512Z,84.41
2022-12-18T23:21:51.405Z,84.50
2022-12-18T23:24:18.407Z,84.14
2022-12-18T23:26:44.989Z,82.38
2022-12-18T23:29:11.682Z,82.89
2022-12-18T23:31:39.609Z,83.53
2022-12-18T23:34:06.885Z,83.58
2022-12-18T23:36:45.890Z,82.37
2022-12-18T23:39:28.451Z,83.01
2022-12-18T23:41:56.386Z,83.79
2022-12-18T23:44:23.214Z,82.28
2022-12-18T23:46:49.819Z,83.06
2022-12-18T23:49:16.554Z,83.92
2022-12-18T23:51:43.498Z,84.18
2022-12-18T23:54:10.787Z,84.04
2022-12-18T23:56:37.969Z,84.12
2022-12-18T23:59:04.897Z,83.68
